createdAt,value
2022-09-07T00:08:09.549Z,20.494983277591974
2022-09-07T00:20:19.298Z,20.45484949832776
2022-09-07T00:26:46.601Z,20.91973244147157
2022-09-07T00:36:45.490Z,21.05351170568562
2022-09-07T00:43:52.072Z,21.19732441471572
2022-09-07T00:50:13.588Z,20.31103678929766
2022-09-07T00:56:34.695Z,20.983277591973245
2022-09-07T01:02:56.901Z,21.779264214046822
2022-09-07T01:09:18.098Z,21.237458193979933
2022-09-07T01:15:39.619Z,21.247491638795985
2022-09-07T01:22:01.315Z,21.20066889632107
2022-09-07T01:28:41.515Z,20.93645484949833
2022-09-07T01:40:33.719Z,20.52173913043478
2022-09-07T01:46:55.649Z,21.34448160535117
2022-09-07T01:53:17.100Z,21.29096989966555
2022-09-07T01:59:38.653Z,21.254180602006688
2022-09-07T02:06:02.084Z,21.91304347826087
2022-09-07T02:12:49.996Z,22.578595317725753
2022-09-07T02:25:24.457Z,22.62876254180602
2022-09-07T02:33:33.412Z,23.431438127090303
2022-09-07T02:39:55.243Z,22.294314381270905
2022-09-07T02:51:35.777Z,22.88628762541806
2022-09-07T02:57:57.697Z,23.247491638795985
2022-09-07T03:04:19.296Z,23.705685618729095
2022-09-07T03:10:40.569Z,24.568561872909697
2022-09-07T03:17:01.994Z,24.8561872909699
2022-09-07T03:23:32.138Z,24.040133779264213
2022-09-07T03:35:52.902Z,25.16722408026756
2022-09-07T03:42:15.164Z,26.795986622073578
2022-09-07T03:48:36.845Z,26.976588628762542
2022-09-07T03:54:58.641Z,25.48829431438127
2022-09-07T04:04:03.137Z,27.692307692307693
2022-09-07T04:10:25.110Z,26.702341137123746
2022-09-07T04:16:47.570Z,28.735785953177256
2022-09-07T04:25:00.325Z,27.93979933110368
2022-09-07T04:31:23.457Z,27.60200668896321
2022-09-07T04:37:45.644Z,28.103678929765888
2022-09-07T04:51:36.405Z,29.23076923076923
2022-09-07T04:57:58.482Z,29.752508361204015
2022-09-07T05:04:20.385Z,29.013377926421406
2022-09-07T05:10:42.423Z,28.67558528428094
2022-09-07T05:18:35.714Z,29.983277591973245
2022-09-07T05:26:32.478Z,29.474916387959865
2022-09-07T05:32:55.256Z,29.31438127090301
2022-09-07T05:39:18.233Z,30.043478260869566
2022-09-07T05:45:43.572Z,31.08695652173913
2022-09-07T05:59:48.996Z,32.063545150501675
2022-09-07T06:06:14.465Z,32.73913043478261
2022-09-07T06:12:45.555Z,33.14046822742475
2022-09-07T06:19:15.897Z,33.69899665551839
2022-09-07T06:31:34.529Z,33.90635451505017
2022-09-07T06:38:00.948Z,33.374581939799334
2022-09-07T06:44:28.168Z,33.48494983277592
2022-09-07T06:50:55.803Z,33.30434782608695
2022-09-07T06:57:28.014Z,33.87290969899666
2022-09-07T07:03:58.028Z,34.24414715719063
2022-09-07T07:10:29.430Z,33.34448160535117
2022-09-07T07:16:57.751Z,35.080267558528426
2022-09-07T07:23:23.894Z,35.83277591973244
2022-09-07T07:36:09.662Z,37.11036789297659
2022-09-07T07:47:11.597Z,38.74247491638796
2022-09-07T07:53:41.679Z,37.99665551839465
2022-09-07T08:00:07.899Z,39.280936454849495
2022-09-07T08:14:04.071Z,38.50167224080268
2022-09-07T08:20:29.535Z,39.77591973244147
2022-09-07T08:27:06.613Z,39.75585284280937
2022-09-07T08:35:30.872Z,39.07692307692308
2022-09-07T08:46:43.521Z,38.90635451505017
2022-09-07T08:53:05.063Z,37.05685618729097
2022-09-07T09:01:31.696Z,35.30769230769231
2022-09-07T09:15:34.743Z,35.11371237458194
2022-09-07T09:21:56.776Z,35.79933110367893
2022-09-07T09:28:28.966Z,36.09364548494983
2022-09-07T09:35:56.392Z,33.68896321070234
2022-09-07T09:44:21.351Z,32.77257525083612
2022-09-07T09:52:36.212Z,30.909698996655518
2022-09-07T09:59:05.115Z,28.548494983277592
2022-09-07T10:05:27.010Z,28.157190635451506
2022-09-07T10:12:06.285Z,26.76923076923077
2022-09-07T10:18:29.389Z,26.093645484949832
2022-09-07T10:31:40.952Z,26.036789297658864
2022-09-07T10:43:21.326Z,24.806020066889634
2022-09-07T10:54:31.379Z,20.82274247491639
2022-09-07T11:00:53.604Z,18.76923076923077
2022-09-07T11:10:15.430Z,14.043478260869565
2022-09-07T11:16:51.680Z,10.08695652173913
2022-09-07T11:23:25.689Z,7.40133779264214
2022-09-07T11:29:47.903Z,7.468227424749164
2022-09-07T11:36:12.409Z,7.581939799331104
2022-09-07T11:49:04.466Z,6.9799331103678925
2022-09-07T11:55:28.883Z,7.565217391304348
2022-09-07T12:01:55.581Z,8.561872909698996
2022-09-07T12:11:36.896Z,8.782608695652174
2022-09-07T12:19:29.859Z,9.040133779264215
2022-09-07T12:26:00.095Z,9.003344481605351
2022-09-07T12:36:33.656Z,9.26086956521739
2022-09-07T12:49:12.686Z,8.250836120401338
2022-09-07T12:56:17.333Z,7.973244147157191
2022-09-07T13:13:07.719Z,6.264214046822742
2022-09-07T13:19:34.993Z,5.9799331103678925
2022-09-07T13:26:09.686Z,6.153846153846154
2022-09-07T13:33:08.475Z,5.976588628762542
2022-09-07T13:48:10.969Z,6.451505016722408
2022-09-07T13:54:33.006Z,6.709030100334449
2022-09-07T14:00:57.052Z,6.40133779264214
2022-09-07T14:07:20.174Z,7.076923076923077
2022-09-07T14:15:51.768Z,7.806020066889632
2022-09-07T14:22:15.371Z,8.311036789297658
2022-09-07T14:28:47.841Z,8.722408026755852
2022-09-07T14:35:10.026Z,9.82943143812709
2022-09-07T14:41:31.924Z,9.986622073578594
2022-09-07T14:47:54.457Z,10.632107023411372
2022-09-07T14:54:16.728Z,13.25752508361204
2022-09-07T15:05:45.296Z,14.046822742474916
2022-09-07T15:18:14.201Z,12.65551839464883
2022-09-07T15:24:47.768Z,14.397993311036789
2022-09-07T15:38:02.368Z,16.013377926421406
2022-09-07T15:44:27.867Z,15.919732441471572
2022-09-07T16:01:52.713Z,16.976588628762542
2022-09-07T16:08:26.128Z,18.183946488294314
2022-09-07T16:17:36.497Z,20.016722408026755
2022-09-07T16:29:17.690Z,19.668896321070235
2022-09-07T16:35:39.755Z,22.361204013377925
2022-09-07T16:42:02.150Z,19.244147157190636
2022-09-07T16:48:24.362Z,18.568561872909697
2022-09-07T16:54:45.987Z,18.381270903010034
2022-09-07T17:01:07.919Z,18.682274247491637
2022-09-07T17:07:29.834Z,20.14715719063545
2022-09-07T17:13:52.130Z,23.03344481605351
2022-09-07T17:22:29.687Z,20.06354515050167
2022-09-07T17:28:55.227Z,19.65551839464883
2022-09-07T17:35:16.695Z,21.247491638795985
2022-09-07T17:45:00.804Z,21.277591973244146
2022-09-07T17:51:22.520Z,22.839464882943144
2022-09-07T18:08:53.357Z,25.842809364548494
2022-09-07T18:15:18.366Z,24.722408026755854
2022-09-07T18:21:41.768Z,24.76923076923077
2022-09-07T18:35:04.830Z,26.785953177257525
2022-09-07T18:41:28.097Z,27.327759197324415
2022-09-07T18:47:56.353Z,28.933110367892976
2022-09-07T18:54:22.611Z,29.956521739130434
2022-09-07T19:00:53.357Z,30.71571906354515
2022-09-07T19:08:16.013Z,33.02675585284281
2022-09-07T19:15:42.171Z,34.03678929765886
2022-09-07T19:22:04.819Z,32.87290969899666
2022-09-07T19:33:25.208Z,32.57190635451505
2022-09-07T19:39:46.829Z,34.96321070234114
2022-09-07T19:46:08.036Z,35.89966555183946
2022-09-07T20:02:51.424Z,37.408026755852845
2022-09-07T20:09:59.152Z,38.02341137123746
2022-09-07T20:16:54.753Z,37.43478260869565
2022-09-07T20:23:20.825Z,38.76254180602007
2022-09-07T20:29:43.130Z,38.31772575250836
2022-09-07T20:36:16.717Z,38.94648829431438
2022-09-07T20:43:11.137Z,37.89966555183946
2022-09-07T20:55:36.115Z,38.23745819397993
2022-09-07T21:08:41.107Z,37.50167224080268
2022-09-07T21:15:20.245Z,40.862876254180605
2022-09-07T21:50:31.853Z,41.896321070234116
2022-09-07T21:57:03.850Z,40.474916387959865
2022-09-07T22:07:18.334Z,40.51505016722408
2022-09-07T22:14:00.025Z,40.25752508361204
2022-09-07T22:20:30.499Z,38.752508361204015
2022-09-07T22:30:20.378Z,40.441471571906355
2022-09-07T22:44:37.506Z,40.508361204013376
2022-09-07T22:51:52.186Z,40.779264214046826
2022-09-07T22:58:32.435Z,40.1438127090301
2022-09-07T23:04:55.487Z,39.77591973244147
2022-09-07T23:16:34.809Z,39.585284280936456
2022-09-07T23:23:06.380Z,40.42140468227425
2022-09-07T23:29:29.150Z,39.71571906354515
2022-09-07T23:35:51.032Z,39.31772575250836
2022-09-07T23:45:27.285Z,39.45150501672241
